Time;durP1;ratioP1;P1;durP2;ratioP2;P2;SDS_P1;SDS_P2;PMS_P1;PMS_P2;Temp;Humidity;BMP_temperature;BMP_pressure;BME280_temperature;BME280_humidity;BME280_pressure;Samples;Min_cycle;Max_cycle;Signal;HPM_P1;HPM_P2
2022/11/17 00:00:20;;;;;;;9.20;7.33;;;;;;;6.07;100.00;99340.50;5053590;28;20678;-83
2022/11/17 00:02:47;;;;;;;9.37;7.60;;;;;;;6.05;100.00;99335.31;5061638;28;20205;-83
2022/11/17 00:05:15;;;;;;;8.90;7.43;;;;;;;6.04;100.00;99328.31;5056627;28;20571;-82
2022/11/17 00:07:43;;;;;;;9.70;7.33;;;;;;;6.05;100.00;99331.81;5050436;28;20237;-83
2022/11/17 00:10:10;;;;;;;9.87;8.17;;;;;;;6.04;100.00;99330.13;5056120;28;20281;-83
2022/11/17 00:15:21;;;;;;;10.43;7.03;;;;;;;6.00;100.00;99318.91;5066239;28;20282;-82
2022/11/17 00:17:47;;;;;;;8.03;6.83;;;;;;;6.02;100.00;99309.06;5053427;28;20213;-82
2022/11/17 00:23:00;;;;;;;9.47;7.03;;;;;;;6.01;100.00;99302.09;5058132;28;20217;-81
2022/11/17 00:25:26;;;;;;;7.93;6.13;;;;;;;5.99;100.00;99296.06;5058497;28;20202;-82
2022/11/17 00:27:52;;;;;;;7.63;5.97;;;;;;;5.97;100.00;99297.09;5059097;28;20237;-80
2022/11/17 00:35:54;;;;;;;7.17;5.50;;;;;;;5.93;100.00;99264.75;5048315;28;20243;-80
2022/11/17 00:38:20;;;;;;;7.53;5.73;;;;;;;5.89;100.00;99269.41;5058037;28;20237;-80
2022/11/17 00:40:47;;;;;;;6.37;5.33;;;;;;;5.89;100.00;99268.56;5056253;28;20582;-82
2022/11/17 00:43:13;;;;;;;7.00;5.97;;;;;;;5.92;100.00;99261.25;5055700;28;20213;-81
2022/11/17 00:45:40;;;;;;;9.90;7.40;;;;;;;5.90;100.00;99262.34;5054941;28;20606;-81
2022/11/17 00:48:06;;;;;;;6.83;6.07;;;;;;;5.89;100.00;99264.13;5054094;28;20225;-81
2022/11/17 00:50:33;;;;;;;7.27;6.17;;;;;;;5.87;100.00;99255.41;5055753;28;20205;-81
2022/11/17 00:53:01;;;;;;;9.47;6.93;;;;;;;5.87;100.00;99238.72;5055254;28;20202;-81
2022/11/17 00:55:27;;;;;;;8.40;6.00;;;;;;;5.85;100.00;99230.88;5059261;28;20217;-81
2022/11/17 00:57:54;;;;;;;8.07;6.63;;;;;;;5.86;100.00;99243.16;5058639;28;20231;-80
2022/11/17 01:00:22;;;;;;;8.13;6.03;;;;;;;5.87;100.00;99238.72;5056928;28;20213;-81
2022/11/17 01:02:48;;;;;;;8.47;6.00;;;;;;;5.85;100.00;99227.41;5067762;28;20228;-81
2022/11/17 01:05:15;;;;;;;5.97;5.00;;;;;;;5.85;100.00;99230.03;5055339;28;20206;-82
2022/11/17 01:07:41;;;;;;;7.87;5.70;;;;;;;5.83;100.00;99222.22;5062149;28;20239;-81
2022/11/17 01:10:10;;;;;;;7.10;5.83;;;;;;;5.82;100.00;99227.59;5055004;28;20578;-81
2022/11/17 01:12:36;;;;;;;7.57;5.93;;;;;;;5.77;100.00;99233.19;5052522;28;20575;-80
2022/11/17 01:15:03;;;;;;;7.73;5.73;;;;;;;5.79;100.00;99230.44;5054911;28;20276;-82
2022/11/17 01:17:29;;;;;;;8.60;6.90;;;;;;;5.77;100.00;99225.25;5057218;28;20241;-82
2022/11/17 01:19:56;;;;;;;10.37;6.23;;;;;;;5.79;100.00;99225.16;5058059;28;20209;-81
2022/11/17 01:22:22;;;;;;;8.77;6.43;;;;;;;5.78;100.00;99220.81;5056075;28;20603;-80
2022/11/17 01:24:49;;;;;;;8.03;5.93;;;;;;;5.75;100.00;99207.81;5053280;28;20573;-80
2022/11/17 01:27:17;;;;;;;5.43;4.57;;;;;;;5.73;100.00;99212.38;5054930;28;20227;-81
2022/11/17 01:29:43;;;;;;;7.60;4.90;;;;;;;5.71;100.00;99198.41;5057354;28;20209;-81
2022/11/17 01:32:09;;;;;;;7.80;6.07;;;;;;;5.71;100.00;99204.56;5065105;28;20644;-81
2022/11/17 01:34:36;;;;;;;9.67;6.17;;;;;;;5.71;100.00;99204.56;5058977;28;20205;-81
2022/11/17 01:39:49;;;;;;;9.67;7.43;;;;;;;5.72;100.00;99200.13;5042646;28;20204;-82
2022/11/17 01:42:19;;;;;;;10.33;6.83;;;;;;;5.71;100.00;99191.34;5051813;28;20553;-81
2022/11/17 01:45:01;;;;;;;9.93;7.83;;;;;;;5.68;100.00;99183.63;5057037;28;20714;-81
2022/11/17 01:47:42;;;;;;;10.93;8.73;;;;;;;5.68;100.00;99190.69;5058552;28;20590;-81
2022/11/17 01:50:18;;;;;;;10.53;7.80;;;;;;;5.65;100.00;99190.88;5053777;28;20197;-80
2022/11/17 01:52:46;;;;;;;11.63;8.20;;;;;;;5.62;100.00;99180.53;5051827;28;20200;-81
2022/11/17 01:55:13;;;;;;;12.43;8.63;;;;;;;5.60;100.00;99170.06;5050402;28;20255;-80
2022/11/17 01:57:45;;;;;;;13.80;9.87;;;;;;;5.56;100.00;99174.69;5051717;28;20236;-80
2022/11/17 02:00:13;;;;;;;13.00;9.43;;;;;;;5.53;100.00;99168.78;5066482;28;20552;-80
2022/11/17 02:02:42;;;;;;;13.50;9.77;;;;;;;5.49;100.00;99172.56;5057726;28;20209;-81
2022/11/17 02:05:21;;;;;;;12.40;9.60;;;;;;;5.48;100.00;99176.16;5059744;28;20201;-79
2022/11/17 02:07:50;;;;;;;12.87;8.70;;;;;;;5.47;100.00;99171.81;5056852;28;20607;-79
2022/11/17 02:10:17;;;;;;;12.20;9.10;;;;;;;5.45;100.00;99171.94;5045894;28;20213;-79
2022/11/17 02:12:46;;;;;;;10.53;8.47;;;;;;;5.45;100.00;99174.56;5054778;28;20292;-79
2022/11/17 02:15:12;;;;;;;12.00;9.33;;;;;;;5.40;100.00;99166.09;5053255;28;20599;-79
2022/11/17 02:17:41;;;;;;;11.53;9.23;;;;;;;5.38;100.00;99164.50;5040557;28;20837;-79
2022/11/17 02:20:12;;;;;;;12.27;9.03;;;;;;;5.38;100.00;99161.84;5054589;28;20220;-78
2022/11/17 02:23:28;;;;;;;11.87;9.03;;;;;;;5.36;100.00;99161.13;5049615;28;20820;-79
2022/11/17 02:26:16;;;;;;;12.87;8.40;;;;;;;5.36;100.00;99150.59;5056676;28;20207;-79
2022/11/17 02:28:51;;;;;;;9.60;7.43;;;;;;;5.30;100.00;99154.47;5050256;28;20236;-77
2022/11/17 02:31:25;;;;;;;8.10;6.87;;;;;;;5.32;100.00;99143.81;5047104;28;20569;-78
2022/11/17 02:33:57;;;;;;;8.07;6.57;;;;;;;5.29;100.00;99128.16;5044669;28;20209;-78
2022/11/17 02:36:31;;;;;;;8.77;7.40;;;;;;;5.27;100.00;99132.69;5050011;28;20210;-79
2022/11/17 02:39:04;;;;;;;9.73;7.40;;;;;;;5.26;100.00;99113.38;5045006;28;20221;-80
2022/11/17 02:41:38;;;;;;;9.10;6.13;;;;;;;5.21;100.00;99112.81;5048211;28;20209;-79
2022/11/17 02:44:10;;;;;;;8.80;6.60;;;;;;;5.20;100.00;99100.56;5048950;28;20224;-79
2022/11/17 02:46:43;;;;;;;9.17;6.27;;;;;;;5.21;100.00;99096.97;5051283;28;20656;-80
2022/11/17 02:49:16;;;;;;;6.33;5.47;;;;;;;5.22;100.00;99093.41;5052720;28;20205;-78
2022/11/17 02:51:43;;;;;;;7.10;5.90;;;;;;;5.21;100.00;99091.69;5049954;28;20572;-79
2022/11/17 02:54:11;;;;;;;8.00;6.23;;;;;;;5.18;100.00;99094.56;5050164;28;20216;-79
2022/11/17 02:56:41;;;;;;;9.17;6.13;;;;;;;5.16;100.00;99099.94;5049600;28;20278;-78
2022/11/17 02:59:12;;;;;;;6.77;6.07;;;;;;;5.15;100.00;99092.13;5049922;28;20259;-79
2022/11/17 03:02:01;;;;;;;8.00;5.63;;;;;;;5.15;100.00;99105.31;5058210;28;20765;-79
2022/11/17 03:04:33;;;;;;;7.83;6.27;;;;;;;5.12;100.00;99087.03;5049126;28;20548;-79
2022/11/17 03:07:10;;;;;;;8.43;5.57;;;;;;;5.09;100.00;99093.38;5062223;28;20670;-78
2022/11/17 03:09:47;;;;;;;7.13;5.57;;;;;;;5.06;100.00;99093.56;5048993;28;20197;-79
2022/11/17 03:12:21;;;;;;;6.27;5.53;;;;;;;5.06;100.00;99087.44;5052677;28;20201;-77
2022/11/17 03:14:58;;;;;;;7.13;6.30;;;;;;;5.06;100.00;99092.72;5046452;28;20196;-78
2022/11/17 03:17:31;;;;;;;7.77;5.90;;;;;;;5.06;100.00;99093.56;5053678;28;20224;-78
2022/11/17 03:20:03;;;;;;;7.60;5.70;;;;;;;5.06;100.00;99092.72;5058055;28;20216;-77
2022/11/17 03:22:40;;;;;;;9.33;6.30;;;;;;;5.04;100.00;99079.63;5061238;28;20213;-77
2022/11/17 03:25:12;;;;;;;5.63;5.03;;;;;;;5.05;100.00;99068.13;5055735;28;20197;-77
2022/11/17 03:27:43;;;;;;;6.50;5.20;;;;;;;5.09;99.98;99066.97;5053024;28;20251;-78
2022/11/17 03:30:12;;;;;;;7.13;5.47;;;;;;;5.07;100.00;99063.59;5051044;28;20213;-79
2022/11/17 03:32:43;;;;;;;7.77;6.37;;;;;;;5.08;99.83;99061.78;5053562;28;20221;-78
2022/11/17 03:35:13;;;;;;;7.53;5.63;;;;;;;5.07;100.00;99070.66;5053740;28;20240;-79
2022/11/17 03:37:45;;;;;;;5.70;4.83;;;;;;;5.06;100.00;99064.53;5056876;28;20257;-79
2022/11/17 03:40:15;;;;;;;7.13;5.70;;;;;;;5.05;99.81;99057.56;5053149;28;20197;-80
2022/11/17 03:42:46;;;;;;;6.23;5.37;;;;;;;5.03;99.90;99062.09;5055679;28;20206;-79
2022/11/17 03:45:20;;;;;;;6.47;4.63;;;;;;;5.02;99.93;99049.84;5059454;28;20280;-79
2022/11/17 03:47:49;;;;;;;8.47;6.27;;;;;;;5.04;99.85;99057.66;5045787;28;20226;-78
2022/11/17 03:50:21;;;;;;;6.80;5.47;;;;;;;5.07;99.54;99055.66;5055227;28;20555;-79
2022/11/17 03:52:48;;;;;;;7.23;6.40;;;;;;;5.09;99.49;99045.03;5050861;28;20206;-79
2022/11/17 03:55:16;;;;;;;7.60;5.93;;;;;;;5.09;99.33;99034.47;5043037;28;20220;-78
2022/11/17 03:57:50;;;;;;;9.13;6.63;;;;;;;5.09;99.15;99039.75;5052531;28;20927;-79
2022/11/17 04:00:19;;;;;;;8.70;7.20;;;;;;;5.11;99.06;99036.06;5049454;28;20198;-77
2022/11/17 04:02:48;;;;;;;7.30;6.53;;;;;;;5.11;99.19;99032.56;5047816;28;20201;-78
2022/11/17 04:05:17;;;;;;;7.70;6.60;;;;;;;5.10;99.30;99037.00;5058588;28;20205;-78
2022/11/17 04:07:45;;;;;;;7.47;6.73;;;;;;;5.10;99.12;99038.78;5052530;28;20956;-78
2022/11/17 04:10:14;;;;;;;9.07;7.03;;;;;;;5.12;99.16;99034.25;5048316;28;20206;-79
2022/11/17 04:18:13;;;;;;;8.80;6.37;;;;;;;5.08;99.35;99016.94;5043163;28;20275;-78
2022/11/17 04:20:39;;;;;;;9.17;6.77;;;;;;;5.07;99.40;99023.16;5052512;28;20213;-78
2022/11/17 04:23:08;;;;;;;7.73;6.37;;;;;;;5.04;99.38;99007.53;5055620;28;20663;-79
2022/11/17 04:28:37;;;;;;;7.07;5.77;;;;;;;5.02;99.47;99022.63;5052256;28;20247;-80
2022/11/17 04:31:08;;;;;;;7.63;5.83;;;;;;;5.04;99.72;99010.16;5049900;28;20816;-78
2022/11/17 04:33:35;;;;;;;10.33;6.80;;;;;;;5.05;99.50;99006.59;5047528;28;20218;-78
2022/11/17 04:36:03;;;;;;;8.30;6.90;;;;;;;5.05;99.48;99007.44;5047763;28;20226;-80
2022/11/17 04:38:30;;;;;;;9.37;7.20;;;;;;;5.04;99.55;99010.16;5064175;28;20240;-80
2022/11/17 04:43:52;;;;;;;8.50;7.00;;;;;;;5.04;99.79;98996.97;5028483;28;20289;-77
2022/11/17 04:46:21;;;;;;;8.37;6.57;;;;;;;5.03;99.69;98993.50;5055378;28;20201;-77
2022/11/17 04:48:48;;;;;;;7.93;6.37;;;;;;;5.03;99.80;98990.84;5044175;28;20234;-77
2022/11/17 04:51:15;;;;;;;9.50;6.93;;;;;;;5.02;99.74;98980.41;5053750;28;20224;-79
2022/11/17 04:53:42;;;;;;;9.70;8.00;;;;;;;5.01;99.67;98973.47;5047065;28;20201;-78
2022/11/17 04:56:08;;;;;;;9.57;7.27;;;;;;;5.00;99.66;98975.25;5053614;28;20237;-78
2022/11/17 04:58:35;;;;;;;11.10;8.27;;;;;;;5.01;99.75;98969.03;5045414;28;20234;-78
2022/11/17 05:01:12;;;;;;;11.30;7.83;;;;;;;5.04;99.76;98967.94;5051375;28;20625;-79
2022/11/17 05:03:41;;;;;;;10.53;8.33;;;;;;;5.04;99.74;98973.22;5044955;28;20233;-79
2022/11/17 05:06:09;;;;;;;9.77;7.87;;;;;;;5.07;99.67;98962.47;5049215;28;20595;-78
2022/11/17 05:08:36;;;;;;;9.33;7.30;;;;;;;5.06;99.69;98966.91;5044911;28;20317;-79
2022/11/17 05:13:48;;;;;;;9.67;7.63;;;;;;;5.09;99.38;98966.69;5047075;28;20205;-79
2022/11/17 05:19:00;;;;;;;10.23;7.87;;;;;;;5.09;99.55;98952.66;5043993;28;20233;-79
2022/11/17 05:21:28;;;;;;;9.97;7.50;;;;;;;5.07;99.67;98951.91;5041777;28;20210;-79
2022/11/17 05:23:53;;;;;;;10.20;7.43;;;;;;;5.06;99.87;98947.59;5051084;28;20422;-77
2022/11/17 05:26:22;;;;;;;9.43;7.50;;;;;;;5.06;99.25;98947.59;5044616;28;20569;-79
2022/11/17 05:28:49;;;;;;;8.93;7.43;;;;;;;5.06;99.81;98951.06;5045993;28;20226;-79
2022/11/17 05:31:16;;;;;;;9.90;8.23;;;;;;;5.06;99.81;98955.50;5049780;28;20206;-79
2022/11/17 05:33:43;;;;;;;9.13;7.40;;;;;;;5.08;99.75;98953.63;5046894;28;20208;-78
2022/11/17 05:36:12;;;;;;;9.10;8.07;;;;;;;5.08;99.75;98956.25;5048295;28;20233;-79
2022/11/17 05:38:39;;;;;;;7.73;6.93;;;;;;;5.11;99.45;98961.31;5056216;28;20225;-79
2022/11/17 05:41:05;;;;;;;6.73;6.03;;;;;;;5.10;99.78;98962.28;5048080;28;20549;-78
2022/11/17 05:43:31;;;;;;;6.20;4.43;;;;;;;5.12;99.13;98950.66;5059122;28;20894;-78
2022/11/17 05:45:58;;;;;;;7.73;6.40;;;;;;;5.05;98.85;98945.91;5057010;28;20647;-78
2022/11/17 05:48:25;;;;;;;7.17;5.93;;;;;;;5.06;98.67;98940.53;5045733;28;20739;-78
2022/11/17 05:50:52;;;;;;;6.93;5.63;;;;;;;4.99;98.57;98939.28;5050484;28;20656;-79
2022/11/17 05:53:20;;;;;;;8.00;5.10;;;;;;;5.02;98.73;98941.66;5050585;28;20205;-78
2022/11/17 05:55:46;;;;;;;6.93;5.13;;;;;;;5.03;98.53;98931.97;5050206;28;20204;-78
2022/11/17 05:58:18;;;;;;;6.17;5.57;;;;;;;5.01;98.78;98928.63;5059034;28;20234;-78
2022/11/17 06:00:44;;;;;;;5.43;4.90;;;;;;;5.03;98.48;98934.59;5047128;28;20208;-78
2022/11/17 06:03:16;;;;;;;6.27;5.40;;;;;;;5.00;98.49;98945.38;5051907;28;20206;-79
2022/11/17 06:05:43;;;;;;;5.83;3.73;;;;;;;5.00;98.43;98933.03;5046655;28;20219;-79
2022/11/17 06:08:10;;;;;;;5.10;4.10;;;;;;;4.99;98.28;98925.22;5036241;28;20230;-79
2022/11/17 06:10:38;;;;;;;5.73;5.10;;;;;;;4.99;98.44;98946.34;5046801;28;20556;-77
2022/11/17 06:13:04;;;;;;;7.23;5.43;;;;;;;4.98;98.26;98923.53;5047188;28;20573;-79
2022/11/17 06:15:31;;;;;;;8.43;6.30;;;;;;;4.99;98.16;98930.50;5047538;28;20202;-80
2022/11/17 06:18:01;;;;;;;7.20;5.73;;;;;;;5.01;97.94;98933.88;5044036;28;20244;-78
2022/11/17 06:20:31;;;;;;;6.30;5.60;;;;;;;5.00;98.29;98932.19;5045212;28;20594;-79
2022/11/17 06:23:01;;;;;;;8.23;7.33;;;;;;;4.98;98.49;98921.75;5043812;28;20217;-79
2022/11/17 06:25:29;;;;;;;8.83;7.00;;;;;;;4.99;98.75;98922.59;5043091;28;20209;-77
2022/11/17 06:27:58;;;;;;;8.40;6.83;;;;;;;4.92;98.98;98916.88;5049018;28;20232;-79
2022/11/17 06:30:29;;;;;;;8.27;6.80;;;;;;;4.94;98.83;98914.13;5049039;28;20716;-80
2022/11/17 06:32:57;;;;;;;6.97;6.27;;;;;;;4.95;98.66;98915.81;5044291;28;20620;-81
2022/11/17 06:35:25;;;;;;;7.20;5.50;;;;;;;4.91;99.03;98928.38;5048550;28;20205;-80
2022/11/17 06:37:51;;;;;;;8.03;6.43;;;;;;;4.91;99.27;98914.34;5051643;28;20753;-79
2022/11/17 06:40:18;;;;;;;7.10;5.53;;;;;;;4.88;98.94;98920.66;5060074;28;20208;-80
2022/11/17 06:45:32;;;;;;;5.77;4.63;;;;;;;4.88;99.18;98924.16;5056128;28;20226;-81
2022/11/17 06:47:59;;;;;;;7.87;5.90;;;;;;;4.88;99.84;98915.38;5056315;28;20586;-82
2022/11/17 06:50:25;;;;;;;6.60;5.53;;;;;;;4.87;99.49;98919.81;5054599;28;20292;-82
2022/11/17 06:52:56;;;;;;;8.80;6.30;;;;;;;4.85;99.23;98926.13;5058706;28;20204;-82
2022/11/17 06:55:22;;;;;;;9.33;7.73;;;;;;;4.81;99.77;98914.97;5057108;28;20552;-82
2022/11/17 06:57:49;;;;;;;8.63;6.13;;;;;;;4.78;100.00;98920.44;5056360;28;20849;-81
2022/11/17 07:00:16;;;;;;;10.50;7.63;;;;;;;4.74;100.00;98905.78;5054189;28;20589;-82
2022/11/17 07:02:44;;;;;;;9.80;6.67;;;;;;;4.73;100.00;98916.41;5060666;28;20209;-82
2022/11/17 07:05:11;;;;;;;9.67;7.33;;;;;;;4.69;100.00;98910.50;5065695;28;20651;-82
2022/11/17 07:07:37;;;;;;;9.97;7.47;;;;;;;4.69;100.00;98921.06;5057023;28;20225;-80
2022/11/17 07:10:04;;;;;;;10.03;6.53;;;;;;;4.69;100.00;98915.78;5058980;28;20205;-82
2022/11/17 07:12:31;;;;;;;6.33;5.37;;;;;;;4.65;100.00;98903.78;5054619;28;20201;-82
2022/11/17 07:14:57;;;;;;;7.37;5.37;;;;;;;4.63;100.00;98912.72;5051977;28;20643;-83
2022/11/17 07:17:24;;;;;;;8.37;4.57;;;;;;;4.60;100.00;98921.69;5043977;28;20746;-81
2022/11/17 07:19:53;;;;;;;7.40;5.43;;;;;;;4.59;100.00;98893.63;5045410;28;20208;-81
2022/11/17 07:22:19;;;;;;;7.77;6.20;;;;;;;4.61;100.00;98902.28;5047396;28;20202;-82
2022/11/17 07:24:46;;;;;;;7.03;4.80;;;;;;;4.59;100.00;98893.63;5048780;28;20213;-83
2022/11/17 07:27:12;;;;;;;5.67;4.83;;;;;;;4.59;100.00;98893.63;5050312;28;20229;-80
2022/11/17 07:29:39;;;;;;;7.13;5.63;;;;;;;4.58;100.00;98897.19;5053873;28;20212;-84
2022/11/17 07:32:06;;;;;;;7.03;6.03;;;;;;;4.54;100.00;98877.25;5053801;28;20212;-83
2022/11/17 07:34:33;;;;;;;6.53;5.63;;;;;;;4.54;100.00;98879.88;5058399;28;20202;-83
2022/11/17 07:37:01;;;;;;;10.77;7.27;;;;;;;4.53;100.00;98881.69;5035647;28;20230;-84
2022/11/17 07:39:27;;;;;;;7.87;5.83;;;;;;;4.53;100.00;98872.94;5049417;28;20340;-83
2022/11/17 07:41:54;;;;;;;8.03;6.07;;;;;;;4.51;100.00;98872.19;5054140;28;20202;-84
2022/11/17 07:44:20;;;;;;;8.67;5.90;;;;;;;4.48;100.00;98870.59;5053151;28;20220;-83
2022/11/17 07:46:47;;;;;;;7.17;5.87;;;;;;;4.47;100.00;98870.72;5053814;28;20197;-82
2022/11/17 07:49:13;;;;;;;7.67;5.73;;;;;;;4.43;100.00;98861.31;5054100;28;20210;-83
2022/11/17 07:54:21;;;;;;;7.07;4.80;;;;;;;4.40;100.00;98861.53;5071699;28;20208;-81
2022/11/17 07:56:48;;;;;;;5.03;3.30;;;;;;;4.40;100.00;98872.91;5073997;28;20233;-82
2022/11/17 07:59:14;;;;;;;5.70;4.60;;;;;;;4.39;100.00;98854.56;5070648;28;20660;-82
2022/11/17 08:01:41;;;;;;;6.23;4.80;;;;;;;4.37;100.00;98848.53;5056635;28;20205;-83
2022/11/17 08:04:07;;;;;;;5.63;4.30;;;;;;;4.35;100.00;98834.63;5057280;28;20198;-82
2022/11/17 08:06:35;;;;;;;5.67;4.13;;;;;;;4.31;100.00;98823.44;5056655;28;20217;-81
2022/11/17 08:09:02;;;;;;;6.93;5.83;;;;;;;4.29;100.00;98833.25;5056771;28;20233;-82
2022/11/17 08:11:30;;;;;;;7.20;4.97;;;;;;;4.30;100.00;98836.75;5056828;28;20571;-81
2022/11/17 08:13:57;;;;;;;8.70;5.50;;;;;;;4.31;100.00;98844.50;5076113;28;20223;-83
2022/11/17 08:16:29;;;;;;;9.80;6.30;;;;;;;4.32;100.00;98842.72;5067263;28;20236;-84
2022/11/17 08:18:55;;;;;;;8.10;5.47;;;;;;;4.30;100.00;98840.19;5055609;28;20746;-83
2022/11/17 08:21:22;;;;;;;7.50;6.07;;;;;;;4.28;100.00;98836.00;5055527;28;20209;-84
2022/11/17 08:23:50;;;;;;;8.53;5.60;;;;;;;4.26;100.00;98827.34;5068065;28;20212;-84
2022/11/17 08:26:17;;;;;;;7.00;4.93;;;;;;;4.24;100.00;98832.72;5055707;28;20218;-84
2022/11/17 08:28:44;;;;;;;6.83;5.63;;;;;;;4.23;100.00;98822.28;5060212;28;20858;-83
2022/11/17 08:31:11;;;;;;;7.63;4.87;;;;;;;4.24;100.00;98816.06;5070714;28;20201;-84
2022/11/17 08:33:38;;;;;;;6.87;4.90;;;;;;;4.21;100.00;98814.47;5076564;28;20205;-82
2022/11/17 08:36:06;;;;;;;7.00;4.23;;;;;;;4.22;100.00;98815.31;5076187;28;20209;-82
2022/11/17 08:38:33;;;;;;;7.57;5.00;;;;;;;4.18;100.00;98812.88;5056609;28;20230;-84
2022/11/17 08:41:02;;;;;;;7.03;4.30;;;;;;;4.18;100.00;98833.94;5056270;28;20225;-83
2022/11/17 08:43:30;;;;;;;7.10;5.07;;;;;;;4.16;100.00;98814.75;5056398;28;20327;-85
2022/11/17 08:45:57;;;;;;;8.17;5.37;;;;;;;4.19;100.00;98826.91;5056568;28;20210;-85
2022/11/17 08:48:24;;;;;;;7.63;5.00;;;;;;;4.19;100.00;98817.19;5054941;28;20679;-85
2022/11/17 08:50:51;;;;;;;7.13;5.17;;;;;;;4.23;100.00;98841.56;5055383;28;20683;-81
2022/11/17 08:53:20;;;;;;;7.43;5.80;;;;;;;4.22;100.00;98831.97;5055762;28;20202;-83
2022/11/17 08:55:46;;;;;;;6.00;4.27;;;;;;;4.19;100.00;98838.28;5055955;28;20228;-82
2022/11/17 08:58:16;;;;;;;8.77;5.97;;;;;;;4.21;100.00;98840.81;5057176;28;20240;-82
2022/11/17 09:00:44;;;;;;;5.73;4.90;;;;;;;4.24;100.00;98839.78;5069851;28;20212;-82
2022/11/17 09:03:12;;;;;;;7.93;5.97;;;;;;;4.23;100.00;98843.34;5056410;28;20285;-82
2022/11/17 09:05:39;;;;;;;5.90;4.53;;;;;;;4.24;100.00;98826.59;5056344;28;20656;-82
2022/11/17 09:08:05;;;;;;;6.70;4.60;;;;;;;4.23;100.00;98817.84;5056182;28;20238;-83
2022/11/17 09:10:34;;;;;;;5.67;4.37;;;;;;;4.25;100.00;98818.59;5050607;28;20210;-83
2022/11/17 09:13:01;;;;;;;6.60;4.77;;;;;;;4.23;100.00;98812.56;5035163;28;20251;-83
2022/11/17 09:15:27;;;;;;;4.97;4.37;;;;;;;4.22;100.00;98817.94;5055019;28;20674;-83
2022/11/17 09:17:54;;;;;;;4.23;3.10;;;;;;;4.23;100.00;98812.56;5055349;28;20229;-82
2022/11/17 09:20:22;;;;;;;6.33;4.77;;;;;;;4.23;100.00;98838.94;5055497;28;20771;-82
2022/11/17 09:22:48;;;;;;;7.03;4.70;;;;;;;4.25;100.00;98846.72;5054686;28;20201;-82
2022/11/17 09:25:15;;;;;;;5.23;3.90;;;;;;;4.27;100.00;98832.50;5055268;28;20209;-82
2022/11/17 09:27:42;;;;;;;7.40;5.13;;;;;;;4.30;100.00;98855.19;5054592;28;20703;-82
2022/11/17 09:30:09;;;;;;;6.97;5.00;;;;;;;4.33;100.00;98849.69;5056313;28;20211;-82
2022/11/17 09:32:36;;;;;;;7.33;5.23;;;;;;;4.35;100.00;98843.38;5055338;28;20309;-82
2022/11/17 09:35:05;;;;;;;5.80;4.77;;;;;;;4.32;100.00;98846.22;5055563;28;20201;-81
2022/11/17 09:37:33;;;;;;;4.87;3.80;;;;;;;4.32;100.00;98845.38;5071638;28;20301;-82
2022/11/17 09:40:00;;;;;;;5.33;3.50;;;;;;;4.33;100.00;98866.34;5055447;28;20206;-82
2022/11/17 09:42:27;;;;;;;5.90;4.30;;;;;;;4.34;100.00;98864.56;5054617;28;20213;-83
2022/11/17 09:44:59;;;;;;;8.10;5.67;;;;;;;4.35;100.00;98853.06;5060831;28;20197;-82
2022/11/17 09:47:33;;;;;;;5.27;4.37;;;;;;;4.36;100.00;98844.22;5054815;28;20232;-82
2022/11/17 09:50:04;;;;;;;5.67;4.33;;;;;;;4.39;100.00;98830.84;5035061;28;20198;-82
2022/11/17 09:52:42;;;;;;;6.20;4.67;;;;;;;4.36;100.00;98831.03;5052341;28;20204;-82
2022/11/17 09:55:22;;;;;;;5.63;4.50;;;;;;;4.36;100.00;98836.31;5063452;28;20197;-82
2022/11/17 09:57:56;;;;;;;5.50;4.27;;;;;;;4.41;100.00;98837.69;5066899;28;20236;-81
2022/11/17 10:00:23;;;;;;;4.13;3.37;;;;;;;4.44;100.00;98826.97;5055517;28;20581;-83
2022/11/17 10:02:50;;;;;;;5.53;3.90;;;;;;;4.48;100.00;98838.13;5055177;28;20213;-83
2022/11/17 10:05:26;;;;;;;6.27;4.07;;;;;;;4.48;100.00;98835.47;5058549;28;20194;-83
2022/11/17 10:07:56;;;;;;;4.17;3.20;;;;;;;4.52;100.00;98834.34;5054997;28;20229;-83
2022/11/17 10:10:29;;;;;;;4.03;3.63;;;;;;;4.52;100.00;98829.06;5054594;28;20216;-83
2022/11/17 10:13:22;;;;;;;5.93;4.07;;;;;;;4.55;100.00;98831.50;5090248;27;20540;-73
2022/11/17 10:15:51;;;;;;;5.57;3.83;;;;;;;4.59;100.00;98829.50;5087502;28;20188;-73
2022/11/17 10:18:18;;;;;;;4.60;3.90;;;;;;;4.60;100.00;98829.41;5060198;28;20208;-73
2022/11/17 10:20:45;;;;;;;4.80;3.80;;;;;;;4.66;100.00;98831.59;5075377;28;20200;-73
2022/11/17 10:23:14;;;;;;;4.20;3.07;;;;;;;4.69;100.00;98827.91;5076707;28;20590;-73
2022/11/17 10:25:42;;;;;;;4.63;3.20;;;;;;;4.71;100.00;98829.50;5082108;22;20205;-74
2022/11/17 10:28:25;;;;;;;5.03;2.90;;;;;;;4.74;100.00;98810.00;5068507;28;20217;-74
2022/11/17 10:30:56;;;;;;;4.30;3.30;;;;;;;4.73;100.00;98811.78;5077491;28;20199;-75
2022/11/17 10:33:35;;;;;;;5.43;3.60;;;;;;;4.76;100.00;98810.72;5062599;28;20255;-76
2022/11/17 10:36:02;;;;;;;4.13;3.53;;;;;;;4.73;100.00;98809.16;5065514;28;20220;-76
2022/11/17 10:38:32;;;;;;;5.00;3.40;;;;;;;4.76;100.00;98803.66;5082830;28;20208;-76
2022/11/17 10:41:01;;;;;;;4.07;2.80;;;;;;;4.76;100.00;98793.13;5090579;28;20208;-74
2022/11/17 10:43:32;;;;;;;4.67;3.63;;;;;;;4.79;100.00;98799.97;5076322;28;20208;-73
2022/11/17 10:46:03;;;;;;;4.80;3.37;;;;;;;4.76;100.00;98782.56;5074657;28;20244;-74
2022/11/17 10:48:32;;;;;;;3.83;2.83;;;;;;;4.77;100.00;98786.06;5074424;28;20205;-73
2022/11/17 10:51:00;;;;;;;3.97;3.37;;;;;;;4.74;100.00;98787.09;5076986;28;20197;-74
2022/11/17 10:53:31;;;;;;;3.70;3.07;;;;;;;4.74;100.00;98792.38;5078317;28;20204;-73
2022/11/17 10:56:02;;;;;;;3.97;2.83;;;;;;;4.76;100.00;98787.84;5076630;28;20662;-73
2022/11/17 10:58:32;;;;;;;3.57;2.87;;;;;;;4.78;100.00;98783.31;5076325;28;20678;-73
2022/11/17 11:01:01;;;;;;;4.07;3.27;;;;;;;4.80;100.00;98789.31;5082300;28;20204;-76
2022/11/17 11:03:29;;;;;;;4.43;3.13;;;;;;;4.79;100.00;98785.00;5076172;28;20250;-74
2022/11/17 11:06:12;;;;;;;3.63;3.17;;;;;;;4.82;100.00;98790.06;5073802;28;20223;-74
2022/11/17 11:08:49;;;;;;;4.07;3.13;;;;;;;4.85;100.00;98775.78;5084305;28;20204;-74
2022/11/17 11:11:29;;;;;;;4.07;3.47;;;;;;;4.86;100.00;98778.34;5079844;28;20200;-73
2022/11/17 11:14:01;;;;;;;4.47;3.03;;;;;;;4.89;100.00;98785.19;5080159;28;20579;-73
2022/11/17 11:16:29;;;;;;;5.10;3.37;;;;;;;4.87;100.00;98782.66;5078245;28;20722;-73
2022/11/17 11:18:57;;;;;;;3.67;3.37;;;;;;;4.86;100.00;98785.41;5083892;28;20200;-76
2022/11/17 11:21:39;;;;;;;4.30;3.83;;;;;;;4.88;100.00;98779.06;5076990;28;20208;-73
2022/11/17 11:24:15;;;;;;;4.00;2.70;;;;;;;4.91;100.00;98778.03;5061228;28;20201;-73
2022/11/17 11:26:52;;;;;;;3.60;3.20;;;;;;;4.93;100.00;98767.38;5065471;28;20234;-73
2022/11/17 11:29:28;;;;;;;3.57;3.03;;;;;;;4.95;100.00;98765.47;5069974;28;20204;-74
2022/11/17 11:32:09;;;;;;;3.50;3.20;;;;;;;4.95;100.00;98768.09;5062623;28;20223;-74
2022/11/17 11:34:53;;;;;;;3.50;3.20;;;;;;;4.97;100.00;98766.19;5062605;28;20547;-73
2022/11/17 11:37:29;;;;;;;3.50;3.10;;;;;;;4.98;100.00;98773.16;5064955;28;20233;-76
2022/11/17 11:40:09;;;;;;;4.53;3.50;;;;;;;4.97;100.00;98767.03;5063310;28;20209;-75
2022/11/17 11:42:46;;;;;;;3.57;3.27;;;;;;;5.00;100.00;98768.63;5066872;28;20216;-74
2022/11/17 11:45:19;;;;;;;3.07;2.77;;;;;;;5.01;100.00;98752.69;5059581;28;20197;-74
2022/11/17 11:48:05;;;;;;;4.00;3.60;;;;;;;5.02;100.00;98754.34;5066988;28;20731;-76
2022/11/17 11:50:43;;;;;;;4.50;3.27;;;;;;;5.04;100.00;98770.91;5059089;28;20201;-74
2022/11/17 11:53:16;;;;;;;4.73;3.07;;;;;;;5.06;100.00;98773.44;5068668;28;20264;-73
2022/11/17 11:55:46;;;;;;;3.20;2.90;;;;;;;5.09;100.00;98778.53;5060859;28;20208;-74
2022/11/17 11:58:19;;;;;;;2.83;2.53;;;;;;;5.08;100.00;98785.59;5056576;28;20570;-76
2022/11/17 12:00:49;;;;;;;4.70;3.57;;;;;;;5.11;100.00;98780.09;5070266;28;20314;-76
2022/11/17 12:03:24;;;;;;;3.10;2.73;;;;;;;5.14;100.00;98776.41;5073390;28;20204;-76
2022/11/17 12:06:38;;;;;;;2.90;2.43;;;;;;;5.12;100.00;98776.50;5072572;28;20230;-76
2022/11/17 12:09:01;;;;;;;3.67;2.90;;;;;;;5.14;100.00;98779.88;5071178;28;20292;-76
2022/11/17 12:14:17;;;;;;;3.17;2.90;;;;;;;5.17;100.00;98781.47;5075771;28;20211;-76
2022/11/17 12:16:47;;;;;;;3.60;2.90;;;;;;;5.18;100.00;98780.53;5079255;28;20224;-75
2022/11/17 12:20:01;;;;;;;3.13;2.50;;;;;;;5.18;100.00;98788.44;5075637;28;20215;-76
2022/11/17 12:23:02;;;;;;;4.10;3.17;;;;;;;5.20;100.00;98789.16;5014823;28;20430;-76
2022/11/17 12:25:31;;;;;;;3.00;2.37;;;;;;;5.19;100.00;98787.50;5063761;28;20208;-75